createdAt,value
2018-06-22T00:00:15.868Z,20.67
2018-06-22T00:00:47.869Z,20.64
2018-06-22T00:01:19.984Z,20.67
2018-06-22T00:01:51.985Z,20.57
2018-06-22T00:02:24.017Z,20.57
2018-06-22T00:02:56.057Z,20.6
2018-06-22T00:03:28.114Z,20.61
2018-06-22T00:04:00.090Z,20.57
2018-06-22T00:04:32.118Z,20.58
2018-06-22T00:05:04.127Z,20.56
2018-06-22T00:05:36.118Z,20.6
2018-06-22T00:06:08.175Z,20.56
2018-06-22T00:06:40.224Z,20.54
2018-06-22T00:07:12.247Z,20.6
2018-06-22T00:07:45.026Z,20.57
2018-06-22T00:08:17.087Z,20.61
2018-06-22T00:08:49.123Z,20.54
2018-06-22T00:09:21.134Z,20.57
2018-06-22T00:09:53.123Z,20.57
2018-06-22T00:10:25.175Z,20.54
2018-06-22T00:10:57.191Z,20.6
2018-06-22T00:11:29.223Z,20.6
2018-06-22T00:12:01.252Z,20.54
2018-06-22T00:12:33.308Z,20.57
2018-06-22T00:13:05.363Z,20.6
2018-06-22T00:13:37.367Z,20.58
2018-06-22T00:14:09.413Z,20.56
2018-06-22T00:14:41.462Z,20.58
2018-06-22T00:15:13.499Z,20.56
2018-06-22T00:15:45.487Z,20.56
2018-06-22T00:16:17.469Z,20.63
2018-06-22T00:16:49.546Z,20.53
2018-06-22T00:17:21.612Z,20.54
2018-06-22T00:17:53.646Z,20.56
2018-06-22T00:18:25.680Z,20.53
2018-06-22T00:18:57.682Z,20.54
2018-06-22T00:19:29.737Z,20.51
2018-06-22T00:20:01.825Z,20.49
2018-06-22T00:20:33.868Z,20.53
2018-06-22T00:21:05.957Z,20.54
2018-06-22T00:21:38.026Z,20.56
2018-06-22T00:22:10.048Z,20.49
2018-06-22T00:22:42.040Z,20.44
2018-06-22T00:23:14.142Z,20.49
2018-06-22T00:23:46.173Z,20.44
2018-06-22T00:24:18.190Z,20.48
2018-06-22T00:24:50.274Z,20.54
2018-06-22T00:25:22.294Z,20.49
2018-06-22T00:25:54.302Z,20.51
2018-06-22T00:26:26.334Z,20.46
2018-06-22T00:26:58.369Z,20.44
2018-06-22T00:27:30.358Z,20.44
2018-06-22T00:28:03.044Z,20.46
2018-06-22T00:28:35.061Z,20.44
2018-06-22T00:29:07.111Z,20.4
2018-06-22T00:29:39.153Z,20.42
2018-06-22T00:30:11.187Z,20.51
2018-06-22T00:30:43.194Z,20.38
2018-06-22T00:31:15.265Z,20.41
2018-06-22T00:31:47.293Z,20.38
2018-06-22T00:32:19.301Z,20.35
2018-06-22T00:32:51.349Z,20.4
2018-06-22T00:33:23.357Z,20.42
2018-06-22T00:33:55.398Z,20.42
2018-06-22T00:34:27.405Z,20.38
2018-06-22T00:34:59.445Z,20.53
2018-06-22T00:35:31.478Z,20.35
2018-06-22T00:36:03.516Z,20.41
2018-06-22T00:36:36.290Z,20.48
2018-06-22T00:37:08.328Z,20.35
2018-06-22T00:37:40.321Z,20.35
2018-06-22T00:38:12.949Z,20.48
2018-06-22T00:38:45.017Z,20.46
2018-06-22T00:39:16.974Z,20.38
2018-06-22T00:39:49.016Z,20.41
2018-06-22T00:40:21.015Z,20.41
2018-06-22T00:40:53.789Z,20.35
2018-06-22T00:41:25.845Z,20.4
2018-06-22T00:41:57.908Z,20.35
2018-06-22T00:42:29.946Z,20.44
2018-06-22T00:43:01.987Z,20.46
2018-06-22T00:43:34.013Z,20.4
2018-06-22T00:44:06.048Z,20.41
2018-06-22T00:44:38.057Z,20.4
2018-06-22T00:45:10.070Z,20.46
2018-06-22T00:45:42.116Z,20.34
2018-06-22T00:46:14.176Z,20.42
2018-06-22T00:46:46.193Z,20.32
2018-06-22T00:47:18.210Z,20.37
2018-06-22T00:47:50.229Z,20.35
2018-06-22T00:48:22.214Z,20.3
2018-06-22T00:48:54.227Z,20.38
2018-06-22T00:49:26.365Z,20.32
2018-06-22T00:49:58.372Z,20.37
2018-06-22T00:50:30.433Z,20.35
2018-06-22T00:51:02.446Z,20.32
2018-06-22T00:51:34.463Z,20.32
2018-06-22T00:52:06.480Z,20.25
2018-06-22T00:52:38.489Z,20.37
2018-06-22T00:53:10.498Z,20.3
2018-06-22T00:53:42.510Z,20.3
2018-06-22T00:54:14.664Z,20.26
2018-06-22T00:54:46.715Z,20.34
2018-06-22T00:55:18.816Z,20.26
2018-06-22T00:55:50.830Z,20.25
2018-06-22T00:56:22.864Z,20.25
2018-06-22T00:56:54.907Z,20.23
2018-06-22T00:57:26.926Z,20.27
2018-06-22T00:57:58.943Z,20.22
2018-06-22T00:58:30.977Z,20.27
2018-06-22T00:59:03.010Z,20.35
2018-06-22T00:59:35.016Z,20.25
2018-06-22T01:00:07.057Z,20.25
2018-06-22T01:00:39.083Z,20.27
2018-06-22T01:01:11.117Z,20.22
2018-06-22T01:01:43.096Z,20.3
2018-06-22T01:02:15.113Z,20.29
2018-06-22T01:02:47.144Z,20.26
2018-06-22T01:03:19.157Z,20.3
2018-06-22T01:03:51.188Z,20.3
2018-06-22T01:04:23.166Z,20.27
2018-06-22T01:04:55.184Z,20.29
2018-06-22T01:05:27.211Z,20.27
2018-06-22T01:05:59.239Z,20.26
2018-06-22T01:06:31.239Z,20.23
2018-06-22T01:07:03.326Z,20.3
2018-06-22T01:07:35.336Z,20.29
2018-06-22T01:08:07.425Z,20.29
2018-06-22T01:08:40.155Z,20.15
2018-06-22T01:09:12.160Z,20.25
2018-06-22T01:09:44.144Z,20.29
2018-06-22T01:10:16.321Z,20.18
2018-06-22T01:10:48.416Z,20.3
2018-06-22T01:11:20.425Z,20.27
2018-06-22T01:11:52.457Z,20.19
2018-06-22T01:12:24.502Z,20.16
2018-06-22T01:12:56.560Z,20.25
2018-06-22T01:13:28.609Z,20.19
2018-06-22T01:14:00.683Z,20.18
2018-06-22T01:14:32.730Z,20.16
2018-06-22T01:15:04.780Z,20.2
2018-06-22T01:15:36.793Z,20.18
2018-06-22T01:16:08.838Z,20.23
2018-06-22T01:16:40.882Z,20.18
2018-06-22T01:17:12.943Z,20.12
2018-06-22T01:17:44.995Z,20.2
2018-06-22T01:18:17.027Z,20.2
2018-06-22T01:18:49.071Z,20.19
2018-06-22T01:19:21.102Z,20.16
2018-06-22T01:19:53.173Z,20.2
2018-06-22T01:20:25.186Z,20.18
2018-06-22T01:20:57.235Z,20.2
2018-06-22T01:21:29.215Z,20.18
2018-06-22T01:22:01.288Z,20.23
2018-06-22T01:22:33.363Z,20.16
2018-06-22T01:23:05.395Z,20.2
2018-06-22T01:23:37.442Z,20.11
2018-06-22T01:24:09.396Z,20.11
2018-06-22T01:24:41.414Z,20.2
2018-06-22T01:25:13.445Z,20.1
2018-06-22T01:25:45.523Z,20.11
2018-06-22T01:26:17.522Z,20.12
2018-06-22T01:26:49.568Z,20.15
2018-06-22T01:27:21.601Z,20.15
2018-06-22T01:27:53.604Z,20.18
2018-06-22T01:28:25.632Z,20.18
2018-06-22T01:28:58.186Z,20.18
2018-06-22T01:29:31.063Z,20.04
2018-06-22T01:30:03.089Z,20.1
2018-06-22T01:30:35.222Z,20.1
2018-06-22T01:31:07.242Z,20.07
2018-06-22T01:31:39.265Z,20.15
2018-06-22T01:32:11.310Z,20.15
2018-06-22T01:32:43.357Z,20.15
2018-06-22T01:33:15.359Z,20.2
2018-06-22T01:33:47.366Z,20.16
2018-06-22T01:34:19.376Z,20.1
2018-06-22T01:34:51.362Z,20.15
2018-06-22T01:35:23.413Z,20.05
2018-06-22T01:35:55.530Z,20.19
2018-06-22T01:36:27.560Z,20.12
2018-06-22T01:37:00.192Z,20.16
2018-06-22T01:37:32.247Z,20.18
2018-06-22T01:38:04.247Z,20.07
2018-06-22T01:38:36.290Z,20.1
2018-06-22T01:39:08.323Z,20.11
2018-06-22T01:39:40.367Z,20.11
2018-06-22T01:40:12.432Z,20.05
2018-06-22T01:40:44.478Z,20.11
2018-06-22T01:41:16.543Z,20.08
2018-06-22T01:41:48.578Z,20.08
2018-06-22T01:42:20.590Z,20.08
2018-06-22T01:42:52.580Z,20.16
2018-06-22T01:43:24.557Z,20.12
2018-06-22T01:43:56.571Z,20.11
2018-06-22T01:44:28.608Z,20.08
2018-06-22T01:45:00.651Z,20.11
2018-06-22T01:45:32.658Z,20.04
2018-06-22T01:46:04.707Z,20.15
2018-06-22T01:46:36.737Z,20.07
2018-06-22T01:47:08.759Z,20.08
2018-06-22T01:47:40.821Z,20.04
2018-06-22T01:48:12.860Z,20.08
2018-06-22T01:48:44.889Z,20.1
2018-06-22T01:49:16.941Z,20.04
2018-06-22T01:49:49.061Z,20.08
2018-06-22T01:50:21.131Z,20.05
2018-06-22T01:50:53.128Z,20.07
2018-06-22T01:51:25.148Z,20.05
2018-06-22T01:51:57.263Z,20.08
2018-06-22T01:52:29.318Z,20.05
2018-06-22T01:53:01.337Z,20
2018-06-22T01:53:33.405Z,20.07
2018-06-22T01:54:05.455Z,20.05
2018-06-22T01:54:37.504Z,20.08
2018-06-22T01:55:09.509Z,20.01
2018-06-22T01:55:41.553Z,20.01
2018-06-22T01:56:13.589Z,20.04
2018-06-22T01:56:45.610Z,20.02
2018-06-22T01:57:17.659Z,20.01
2018-06-22T01:57:49.720Z,20.01
2018-06-22T01:58:21.776Z,19.98
2018-06-22T01:58:53.800Z,20.1
2018-06-22T01:59:25.839Z,20.07
2018-06-22T01:59:57.869Z,20.04
2018-06-22T02:00:29.929Z,20.04
2018-06-22T02:01:01.987Z,20.04
2018-06-22T02:01:34.003Z,20
2018-06-22T02:02:06.018Z,20.07
2018-06-22T02:02:38.008Z,20
2018-06-22T02:03:10.021Z,20.05
2018-06-22T02:03:42.031Z,20.05
2018-06-22T02:04:14.066Z,20.01
2018-06-22T02:04:46.092Z,20.04
2018-06-22T02:05:18.146Z,20.05
2018-06-22T02:05:50.253Z,20.05
2018-06-22T02:06:22.338Z,19.98
2018-06-22T02:06:54.313Z,20.05
2018-06-22T02:07:26.538Z,19.98
2018-06-22T02:07:58.659Z,19.97
2018-06-22T02:08:30.725Z,20.01
2018-06-22T02:09:03.416Z,20.02
2018-06-22T02:09:35.475Z,20.02
2018-06-22T02:10:07.499Z,20.02
2018-06-22T02:10:39.473Z,19.97
2018-06-22T02:11:11.518Z,19.97
2018-06-22T02:11:43.536Z,20.01
2018-06-22T02:12:15.574Z,20
2018-06-22T02:12:47.621Z,19.89
2018-06-22T02:13:19.668Z,20
2018-06-22T02:13:51.703Z,20.01
2018-06-22T02:14:23.721Z,20.01
2018-06-22T02:14:55.828Z,20
2018-06-22T02:15:27.856Z,20.04
2018-06-22T02:15:59.863Z,19.98
2018-06-22T02:16:31.904Z,19.97
2018-06-22T02:17:03.988Z,19.97
2018-06-22T02:17:36.057Z,19.89
2018-06-22T02:18:08.142Z,19.92
2018-06-22T02:18:40.187Z,19.9
2018-06-22T02:19:12.188Z,19.98
2018-06-22T02:19:44.214Z,19.9
2018-06-22T02:20:16.245Z,19.92
2018-06-22T02:20:48.243Z,20.02
2018-06-22T02:21:20.287Z,19.89
2018-06-22T02:21:52.308Z,19.89
2018-06-22T02:22:24.324Z,19.92
2018-06-22T02:22:56.351Z,19.89
2018-06-22T02:23:28.472Z,19.95
2018-06-22T02:24:00.517Z,19.92
2018-06-22T02:24:32.529Z,19.95
2018-06-22T02:25:04.582Z,19.95
2018-06-22T02:25:36.651Z,19.92
2018-06-22T02:26:08.691Z,19.97
2018-06-22T02:26:40.738Z,19.86
2018-06-22T02:27:12.820Z,19.85
2018-06-22T02:27:44.841Z,19.86
2018-06-22T02:28:16.862Z,19.92
2018-06-22T02:28:48.903Z,19.9
2018-06-22T02:29:20.963Z,19.95
2018-06-22T02:29:52.982Z,19.92
2018-06-22T02:30:25.002Z,19.86
2018-06-22T02:30:57.021Z,19.93
2018-06-22T02:31:29.130Z,19.9
2018-06-22T02:32:01.128Z,19.93
2018-06-22T02:32:33.182Z,19.95
2018-06-22T02:33:05.923Z,19.9
2018-06-22T02:33:37.958Z,19.92
2018-06-22T02:34:09.979Z,19.87
2018-06-22T02:34:42.016Z,19.93
2018-06-22T02:35:14.222Z,19.86
2018-06-22T02:35:46.236Z,19.87
2018-06-22T02:36:18.392Z,19.93
2018-06-22T02:36:50.422Z,19.89
2018-06-22T02:37:22.489Z,19.86
2018-06-22T02:37:54.520Z,19.98
2018-06-22T02:38:26.551Z,19.87
2018-06-22T02:38:58.610Z,19.87
2018-06-22T02:39:30.666Z,19.93
2018-06-22T02:40:02.684Z,19.93
2018-06-22T02:40:34.699Z,19.92
2018-06-22T02:41:06.760Z,19.9
2018-06-22T02:41:38.909Z,19.9
2018-06-22T02:42:11.084Z,19.87
2018-06-22T02:42:43.109Z,19.89
2018-06-22T02:43:15.126Z,19.93
2018-06-22T02:43:47.210Z,19.93
2018-06-22T02:44:19.253Z,19.87
2018-06-22T02:44:51.347Z,19.92
2018-06-22T02:45:23.353Z,19.86
2018-06-22T02:45:55.373Z,19.87
2018-06-22T02:46:27.489Z,19.89
2018-06-22T02:46:59.508Z,19.85
2018-06-22T02:47:31.538Z,19.89
2018-06-22T02:48:03.558Z,19.85
2018-06-22T02:48:36.432Z,19.93
2018-06-22T02:49:08.423Z,19.9
2018-06-22T02:49:40.462Z,19.93
2018-06-22T02:50:12.494Z,19.92
2018-06-22T02:50:45.123Z,19.85
2018-06-22T02:51:17.147Z,19.86
2018-06-22T02:51:49.206Z,19.85
2018-06-22T02:52:21.249Z,19.89
2018-06-22T02:52:53.275Z,19.87
2018-06-22T02:53:25.345Z,19.86
2018-06-22T02:53:57.377Z,19.86
2018-06-22T02:54:29.364Z,19.86
2018-06-22T02:55:01.409Z,19.86
2018-06-22T02:55:33.585Z,19.85
2018-06-22T02:56:05.669Z,19.86
2018-06-22T02:56:37.685Z,19.86
2018-06-22T02:57:09.753Z,19.9
2018-06-22T02:57:41.840Z,19.83
2018-06-22T02:58:13.869Z,19.86
2018-06-22T02:58:45.913Z,19.83
2018-06-22T02:59:17.914Z,19.8
2018-06-22T02:59:49.999Z,19.89
2018-06-22T03:00:22.141Z,19.82
2018-06-22T03:00:54.277Z,19.83
2018-06-22T03:01:26.358Z,19.86
2018-06-22T03:01:58.384Z,19.9
2018-06-22T03:02:30.380Z,19.87
2018-06-22T03:03:02.376Z,19.83
2018-06-22T03:03:34.369Z,19.87
2018-06-22T03:04:06.374Z,19.89
2018-06-22T03:04:38.609Z,19.83
2018-06-22T03:05:10.578Z,19.87
2018-06-22T03:05:42.632Z,19.8
2018-06-22T03:06:14.697Z,19.85
2018-06-22T03:06:46.717Z,19.83
2018-06-22T03:07:18.732Z,19.86
2018-06-22T03:07:50.730Z,19.82
2018-06-22T03:08:22.770Z,19.89
2018-06-22T03:08:55.442Z,19.87
2018-06-22T03:09:27.499Z,19.86
2018-06-22T03:09:59.545Z,19.89
2018-06-22T03:10:31.569Z,19.89
2018-06-22T03:11:03.638Z,19.89
2018-06-22T03:11:36.212Z,19.87
2018-06-22T03:12:08.236Z,19.89
2018-06-22T03:12:40.291Z,19.86
2018-06-22T03:13:12.316Z,19.92
2018-06-22T03:13:44.354Z,19.89
2018-06-22T03:14:16.385Z,19.86
2018-06-22T03:14:49.038Z,19.8
2018-06-22T03:15:21.078Z,19.86
2018-06-22T03:15:53.115Z,19.8
2018-06-22T03:16:25.135Z,19.89
2018-06-22T03:16:57.162Z,19.89
2018-06-22T03:17:29.250Z,19.82
2018-06-22T03:18:01.230Z,19.86
2018-06-22T03:18:33.262Z,19.87
2018-06-22T03:19:05.340Z,19.8
2018-06-22T03:19:37.333Z,19.85
2018-06-22T03:20:09.377Z,19.86
2018-06-22T03:20:41.431Z,19.8
2018-06-22T03:21:13.450Z,19.87
2018-06-22T03:21:45.485Z,19.86
2018-06-22T03:22:17.542Z,19.85
2018-06-22T03:22:49.555Z,19.83
2018-06-22T03:23:21.600Z,19.89
2018-06-22T03:23:53.595Z,19.86
2018-06-22T03:24:25.622Z,19.85
2018-06-22T03:24:57.626Z,19.89
2018-06-22T03:25:29.649Z,19.83
2018-06-22T03:26:01.682Z,19.8
2018-06-22T03:26:33.710Z,19.83
2018-06-22T03:27:05.701Z,19.85
2018-06-22T03:27:37.800Z,19.85
2018-06-22T03:28:09.873Z,19.82
2018-06-22T03:28:41.921Z,19.85
2018-06-22T03:29:13.943Z,19.85
2018-06-22T03:29:45.997Z,19.87
2018-06-22T03:30:18.012Z,19.87
2018-06-22T03:30:50.048Z,19.89
2018-06-22T03:31:22.073Z,19.87
2018-06-22T03:31:54.153Z,19.87
2018-06-22T03:32:26.195Z,19.82
2018-06-22T03:32:58.752Z,19.87
2018-06-22T03:33:30.768Z,19.82
2018-06-22T03:34:02.833Z,19.85
2018-06-22T03:34:34.919Z,20.01
2018-06-22T03:35:07.015Z,19.82
2018-06-22T03:35:39.077Z,19.85
2018-06-22T03:36:11.078Z,19.83
2018-06-22T03:36:43.125Z,19.87
2018-06-22T03:37:15.210Z,19.87
2018-06-22T03:37:47.234Z,19.87
2018-06-22T03:38:19.266Z,19.89
2018-06-22T03:38:51.316Z,19.87
2018-06-22T03:39:23.390Z,19.87
2018-06-22T03:39:55.417Z,19.87
2018-06-22T03:40:27.453Z,19.85
2018-06-22T03:40:59.475Z,19.9
2018-06-22T03:41:31.481Z,19.8
2018-06-22T03:42:03.514Z,19.9
2018-06-22T03:42:35.539Z,19.89
2018-06-22T03:43:07.560Z,19.86
2018-06-22T03:43:39.607Z,19.86
2018-06-22T03:44:11.712Z,19.97
2018-06-22T03:44:43.748Z,19.95
2018-06-22T03:45:15.809Z,19.93
2018-06-22T03:45:47.834Z,19.95
2018-06-22T03:46:19.949Z,19.93
2018-06-22T03:46:51.975Z,19.87
2018-06-22T03:47:23.959Z,19.93
2018-06-22T03:47:55.970Z,20.01
2018-06-22T03:48:27.948Z,19.93
2018-06-22T03:48:59.936Z,19.9
2018-06-22T03:49:31.968Z,19.89
2018-06-22T03:50:03.992Z,19.89
2018-06-22T03:50:36.020Z,19.92
2018-06-22T03:51:08.069Z,19.92
2018-06-22T03:51:40.060Z,20
2018-06-22T03:52:12.109Z,19.97
2018-06-22T03:52:44.131Z,19.87
2018-06-22T03:53:16.138Z,19.92
2018-06-22T03:53:49.059Z,19.9
2018-06-22T03:54:21.048Z,19.95
2018-06-22T03:54:53.110Z,19.93
2018-06-22T03:55:25.174Z,19.95
2018-06-22T03:55:57.200Z,19.92
2018-06-22T03:56:29.239Z,19.92
2018-06-22T03:57:01.271Z,19.89
2018-06-22T03:57:33.302Z,19.98
2018-06-22T03:58:05.330Z,19.97
2018-06-22T03:58:37.412Z,19.93
2018-06-22T03:59:09.460Z,19.89
2018-06-22T03:59:41.494Z,19.89
2018-06-22T04:00:13.554Z,19.98
2018-06-22T04:00:45.576Z,20
2018-06-22T04:01:17.677Z,19.95
2018-06-22T04:01:49.719Z,19.93
2018-06-22T04:02:21.744Z,20
2018-06-22T04:02:53.759Z,19.93
2018-06-22T04:03:25.792Z,19.89
2018-06-22T04:03:57.813Z,19.92
2018-06-22T04:04:29.798Z,19.93
2018-06-22T04:05:01.838Z,20
2018-06-22T04:05:33.851Z,19.92
2018-06-22T04:06:05.972Z,19.92
2018-06-22T04:06:38.036Z,19.95
2018-06-22T04:07:10.060Z,19.95
2018-06-22T04:07:42.103Z,19.93
2018-06-22T04:08:14.176Z,19.97
2018-06-22T04:08:46.306Z,19.93
2018-06-22T04:09:18.335Z,19.93
2018-06-22T04:09:50.425Z,19.98
2018-06-22T04:10:22.468Z,19.97
2018-06-22T04:10:54.463Z,20.02
2018-06-22T04:11:26.481Z,19.95
2018-06-22T04:11:58.481Z,19.97
2018-06-22T04:12:30.526Z,19.98
2018-06-22T04:13:02.626Z,20
2018-06-22T04:13:34.646Z,19.95
2018-06-22T04:14:07.479Z,20.04
2018-06-22T04:14:39.481Z,19.97
2018-06-22T04:15:11.523Z,19.93
2018-06-22T04:15:43.558Z,19.95
2018-06-22T04:16:15.583Z,20.04
2018-06-22T04:16:47.643Z,19.93
2018-06-22T04:17:19.652Z,20
2018-06-22T04:17:51.708Z,19.92
2018-06-22T04:18:23.780Z,20
2018-06-22T04:18:56.351Z,19.98
2018-06-22T04:19:28.385Z,19.95
2018-06-22T04:20:00.394Z,19.92
2018-06-22T04:20:32.447Z,20.07
2018-06-22T04:21:04.506Z,20.1
2018-06-22T04:21:36.526Z,20.05
2018-06-22T04:22:08.570Z,19.93
2018-06-22T04:22:40.607Z,20.05
2018-06-22T04:23:12.603Z,20.05
2018-06-22T04:23:44.620Z,20.05
2018-06-22T04:24:16.648Z,20.05
2018-06-22T04:24:48.744Z,19.98
2018-06-22T04:25:20.775Z,19.98
2018-06-22T04:25:52.839Z,20
2018-06-22T04:26:24.858Z,20
2018-06-22T04:26:56.938Z,20
2018-06-22T04:27:28.964Z,20.01
2018-06-22T04:28:01.026Z,20.04
2018-06-22T04:28:33.045Z,20.02
2018-06-22T04:29:05.072Z,20.04
2018-06-22T04:29:37.114Z,20.04
2018-06-22T04:30:09.145Z,20.02
2018-06-22T04:30:41.183Z,20
2018-06-22T04:31:13.203Z,20.07
2018-06-22T04:31:45.226Z,20.04
2018-06-22T04:32:17.229Z,20.05
2018-06-22T04:32:49.312Z,20
2018-06-22T04:33:21.308Z,20.05
2018-06-22T04:33:53.947Z,20.01
2018-06-22T04:34:25.962Z,20.01
2018-06-22T04:34:58.034Z,20.02
2018-06-22T04:35:30.091Z,20.05
2018-06-22T04:36:02.137Z,20.01
2018-06-22T04:36:34.194Z,20.02
2018-06-22T04:37:06.224Z,20.1
2018-06-22T04:37:38.315Z,20.07
2018-06-22T04:38:11.193Z,20.04
2018-06-22T04:38:43.259Z,20.07
2018-06-22T04:39:15.298Z,19.98
2018-06-22T04:39:47.318Z,20.07
2018-06-22T04:40:19.373Z,20.07
2018-06-22T04:40:51.432Z,20.04
2018-06-22T04:41:23.508Z,20.02
2018-06-22T04:41:55.537Z,20.04
2018-06-22T04:42:27.567Z,20.11
2018-06-22T04:42:59.604Z,20.08
2018-06-22T04:43:31.639Z,20.02
2018-06-22T04:44:03.674Z,20.04
2018-06-22T04:44:35.686Z,20.07
2018-06-22T04:45:07.706Z,20.02
2018-06-22T04:45:39.733Z,20.05
2018-06-22T04:46:11.759Z,20.05
2018-06-22T04:46:43.783Z,20.07
2018-06-22T04:47:16.371Z,20.08
2018-06-22T04:47:48.382Z,20.01
2018-06-22T04:48:20.405Z,20.07
2018-06-22T04:48:52.458Z,20.04
2018-06-22T04:49:24.499Z,20.04
2018-06-22T04:49:56.590Z,20.08
2018-06-22T04:50:28.643Z,20.07
2018-06-22T04:51:00.651Z,19.98
2018-06-22T04:51:32.706Z,19.98
2018-06-22T04:52:04.746Z,20.02
2018-06-22T04:52:36.762Z,20.04
2018-06-22T04:53:08.827Z,20.07
2018-06-22T04:53:40.868Z,20.04
2018-06-22T04:54:12.873Z,20.01
2018-06-22T04:54:44.890Z,20.05
2018-06-22T04:55:16.889Z,20.04
2018-06-22T04:55:49.028Z,20.01
2018-06-22T04:56:21.079Z,20.05
2018-06-22T04:56:53.199Z,20.04
2018-06-22T04:57:25.208Z,20.04
2018-06-22T04:57:57.233Z,20.08
2018-06-22T04:58:29.354Z,20
2018-06-22T04:59:01.367Z,20.01
2018-06-22T04:59:33.416Z,20.01
2018-06-22T05:00:05.452Z,20.07
2018-06-22T05:00:37.501Z,20.02
2018-06-22T05:01:09.542Z,20.07
2018-06-22T05:01:41.594Z,20.02
2018-06-22T05:02:13.684Z,20.04
2018-06-22T05:02:45.705Z,20.05
2018-06-22T05:03:17.721Z,19.98
2018-06-22T05:03:49.751Z,20.04
2018-06-22T05:04:21.850Z,20.01
2018-06-22T05:04:53.851Z,20.04
2018-06-22T05:05:25.855Z,20.08
2018-06-22T05:05:57.852Z,20.08
2018-06-22T05:06:29.879Z,20.08
2018-06-22T05:07:01.882Z,20.05
2018-06-22T05:07:33.918Z,20.07
2018-06-22T05:08:05.916Z,20.05
2018-06-22T05:08:37.946Z,20.04
2018-06-22T05:09:09.993Z,20.08
2018-06-22T05:09:42.039Z,20.07
2018-06-22T05:10:14.046Z,20.08
2018-06-22T05:10:46.178Z,20.1
2018-06-22T05:11:18.317Z,20.11
2018-06-22T05:11:50.308Z,20.07
2018-06-22T05:12:22.363Z,20.11
2018-06-22T05:12:54.429Z,20.22
2018-06-22T05:13:26.419Z,20.1
2018-06-22T05:13:58.463Z,20.08
2018-06-22T05:14:30.422Z,20.11
2018-06-22T05:15:02.443Z,20.18
2018-06-22T05:15:34.466Z,20.12
2018-06-22T05:16:06.587Z,20.15
2018-06-22T05:16:38.624Z,20.15
2018-06-22T05:17:10.670Z,20.15
2018-06-22T05:17:42.800Z,20.16
2018-06-22T05:18:14.957Z,20.11
2018-06-22T05:18:46.954Z,20.16
2018-06-22T05:19:18.949Z,20.19
2018-06-22T05:19:50.978Z,20.16
2018-06-22T05:20:23.009Z,20.2
2018-06-22T05:20:55.024Z,20.15
2018-06-22T05:21:27.037Z,20.18
2018-06-22T05:21:59.064Z,20.25
2018-06-22T05:22:31.099Z,20.15
2018-06-22T05:23:03.171Z,20.15
2018-06-22T05:23:35.245Z,20.19
2018-06-22T05:24:07.275Z,20.18
2018-06-22T05:24:39.316Z,20.12
2018-06-22T05:25:11.546Z,20.19
2018-06-22T05:25:43.569Z,20.15
2018-06-22T05:26:15.675Z,20.23
2018-06-22T05:26:47.895Z,20.2
2018-06-22T05:27:20.634Z,20.15
2018-06-22T05:27:53.930Z,20.19
2018-06-22T05:28:26.100Z,20.19
2018-06-22T05:28:58.162Z,20.18
2018-06-22T05:29:30.284Z,20.25
2018-06-22T05:30:02.291Z,20.27
2018-06-22T05:30:34.286Z,20.29
2018-06-22T05:31:06.243Z,20.26
2018-06-22T05:31:38.270Z,20.32
2018-06-22T05:32:10.282Z,20.27
2018-06-22T05:32:42.319Z,20.26
2018-06-22T05:33:14.349Z,20.23
2018-06-22T05:33:46.393Z,20.25
2018-06-22T05:34:18.447Z,20.22
2018-06-22T05:34:50.470Z,20.25
2018-06-22T05:35:22.515Z,20.3
2018-06-22T05:35:54.549Z,20.27
2018-06-22T05:36:26.762Z,20.35
2018-06-22T05:36:58.773Z,20.4
2018-06-22T05:37:30.819Z,20.42
2018-06-22T05:38:02.870Z,20.41
2018-06-22T05:38:34.899Z,20.32
2018-06-22T05:39:06.935Z,20.35
2018-06-22T05:39:38.951Z,20.42
2018-06-22T05:40:10.912Z,20.37
2018-06-22T05:40:42.985Z,20.41
2018-06-22T05:41:15.074Z,20.44
2018-06-22T05:41:47.142Z,20.35
2018-06-22T05:42:19.172Z,20.42
2018-06-22T05:42:51.189Z,20.37
2018-06-22T05:43:29.861Z,20.42
2018-06-22T05:44:01.908Z,20.44
2018-06-22T05:44:33.916Z,20.46
2018-06-22T05:45:05.935Z,20.42
2018-06-22T05:45:37.984Z,20.37
2018-06-22T05:46:10.045Z,20.51
2018-06-22T05:46:42.159Z,20.51
2018-06-22T05:47:17.465Z,20.51
2018-06-22T05:47:51.379Z,20.58
2018-06-22T05:48:26.154Z,20.58
2018-06-22T05:48:59.750Z,20.44
2018-06-22T05:49:32.482Z,20.58
2018-06-22T05:50:04.950Z,20.53
2018-06-22T05:50:38.392Z,20.49
2018-06-22T05:51:11.215Z,20.58
2018-06-22T05:51:44.458Z,20.61
2018-06-22T05:52:18.574Z,20.58
2018-06-22T05:52:52.440Z,20.61
2018-06-22T05:53:24.490Z,20.6
2018-06-22T05:53:57.884Z,20.6
2018-06-22T05:54:30.608Z,20.56
2018-06-22T05:55:03.552Z,20.57
2018-06-22T05:55:35.768Z,20.58
2018-06-22T05:56:07.870Z,20.53
2018-06-22T05:56:39.920Z,20.6
2018-06-22T05:57:11.985Z,20.56
2018-06-22T05:57:43.994Z,20.63
2018-06-22T05:58:17.158Z,20.6
2018-06-22T05:58:52.305Z,20.6
2018-06-22T05:59:24.338Z,20.57
2018-06-22T05:59:56.344Z,20.58
2018-06-22T06:00:28.410Z,20.58
2018-06-22T06:01:00.440Z,20.6
2018-06-22T06:01:32.472Z,20.6
2018-06-22T06:02:04.506Z,20.56
2018-06-22T06:02:36.644Z,20.6
2018-06-22T06:03:08.832Z,20.6
2018-06-22T06:03:40.928Z,20.6
2018-06-22T06:04:12.969Z,20.61
2018-06-22T06:04:45.011Z,20.56
2018-06-22T06:05:17.037Z,20.58
2018-06-22T06:05:49.175Z,20.6
2018-06-22T06:06:21.210Z,20.58
2018-06-22T06:06:53.244Z,20.61
2018-06-22T06:07:25.270Z,20.6
2018-06-22T06:07:57.237Z,20.6
2018-06-22T06:08:29.256Z,20.56
2018-06-22T06:09:01.323Z,20.54
2018-06-22T06:09:33.460Z,20.58
2018-06-22T06:10:06.014Z,20.61
2018-06-22T06:10:38.020Z,20.64
2018-06-22T06:11:10.088Z,20.64
2018-06-22T06:11:42.242Z,20.63
2018-06-22T06:12:14.259Z,20.63
2018-06-22T06:12:46.272Z,20.6
2018-06-22T06:13:18.303Z,20.6
2018-06-22T06:13:50.349Z,20.54
2018-06-22T06:14:22.430Z,20.6
2018-06-22T06:14:54.477Z,20.58
2018-06-22T06:15:26.552Z,20.6
